Time;durP1;ratioP1;P1;durP2;ratioP2;P2;SDS_P1;SDS_P2;PMS_P1;PMS_P2;Temp;Humidity;BMP_temperature;BMP_pressure;BME280_temperature;BME280_humidity;BME280_pressure;Samples;Min_cycle;Max_cycle;Signal;HPM_P1;HPM_P2
2023/05/01 00:00:09;;;;;;;11.38;7.55;;;11.10;99.90;;;;;;5022970;28;20026;-75
2023/05/01 05:02:14;;;;;;;10.88;7.45;;;10.50;99.90;;;;;;5518609;23;20245;-75
2023/05/01 05:04:40;;;;;;;9.32;6.60;;;10.50;99.90;;;;;;4907707;29;20329;-76
2023/05/01 05:07:07;;;;;;;7.85;6.50;;;10.50;99.90;;;;;;4888735;29;20029;-74
2023/05/01 05:09:53;;;;;;;10.43;7.00;;;10.60;99.90;;;;;;4908302;29;20040;-75
2023/05/01 05:12:19;;;;;;;7.97;6.38;;;10.60;99.90;;;;;;4876049;29;20059;-74
2023/05/01 05:14:47;;;;;;;8.00;6.47;;;10.60;99.90;;;;;;4892258;29;20319;-75
2023/05/01 05:17:15;;;;;;;7.90;6.10;;;10.70;99.90;;;;;;4875578;29;20337;-76
2023/05/01 05:19:41;;;;;;;10.18;6.57;;;10.70;99.90;;;;;;4893270;29;20048;-74
2023/05/01 05:22:07;;;;;;;7.78;6.18;;;10.80;99.90;;;;;;4892772;29;20036;-75
2023/05/01 05:24:44;;;;;;;10.00;6.75;;;10.80;99.90;;;;;;4880719;29;20033;-75
2023/05/01 05:27:10;;;;;;;9.35;6.82;;;10.90;99.90;;;;;;4875061;29;20029;-75
2023/05/01 05:29:39;;;;;;;10.60;6.70;;;10.90;99.90;;;;;;4875689;29;20045;-75
2023/05/01 05:32:05;;;;;;;9.43;6.82;;;11.00;99.90;;;;;;4891404;29;20037;-75
2023/05/01 05:34:31;;;;;;;8.93;6.85;;;11.00;99.90;;;;;;4875419;29;20033;-76
2023/05/01 05:36:58;;;;;;;9.00;6.63;;;11.00;99.90;;;;;;4884595;29;20044;-75
2023/05/01 05:39:27;;;;;;;11.23;6.95;;;11.10;99.90;;;;;;4875240;29;20081;-77
2023/05/01 05:41:53;;;;;;;10.75;6.78;;;11.10;99.90;;;;;;4874386;29;20029;-76
2023/05/01 05:44:19;;;;;;;9.48;7.00;;;11.10;99.90;;;;;;4891713;29;20072;-76
2023/05/01 05:46:45;;;;;;;10.93;7.07;;;11.10;99.90;;;;;;4874073;29;20032;-76
2023/05/01 05:49:15;;;;;;;9.65;6.88;;;11.10;99.90;;;;;;4874537;29;20314;-76
2023/05/01 05:51:41;;;;;;;10.75;6.53;;;11.10;99.90;;;;;;4874814;29;20028;-75
2023/05/01 05:54:08;;;;;;;7.85;6.05;;;11.10;99.90;;;;;;4859312;29;20032;-77
2023/05/01 05:56:35;;;;;;;9.88;6.80;;;11.10;99.90;;;;;;4861867;29;20108;-75
2023/05/01 05:59:03;;;;;;;9.18;6.53;;;11.10;99.90;;;;;;4909845;29;20028;-76
2023/05/01 06:01:29;;;;;;;8.88;6.60;;;11.10;99.90;;;;;;4877584;29;20195;-75
2023/05/01 06:03:55;;;;;;;10.55;5.97;;;11.10;99.90;;;;;;4883450;29;20048;-75
2023/05/01 06:06:30;;;;;;;9.38;7.07;;;11.10;99.90;;;;;;4874772;29;20068;-75
2023/05/01 06:08:55;;;;;;;9.10;6.68;;;11.10;99.90;;;;;;4877419;29;20068;-76
2023/05/01 06:11:21;;;;;;;8.95;6.68;;;11.10;99.90;;;;;;4891946;29;20032;-76
2023/05/01 06:13:47;;;;;;;9.40;6.88;;;11.10;99.90;;;;;;4874312;29;20374;-75
2023/05/01 06:16:13;;;;;;;11.50;7.28;;;11.10;99.90;;;;;;4874265;29;20322;-75
2023/05/01 06:18:45;;;;;;;9.90;6.43;;;11.20;99.90;;;;;;4891358;29;20048;-75
2023/05/01 06:21:12;;;;;;;9.20;6.88;;;11.30;99.90;;;;;;4873997;29;20089;-75
2023/05/01 06:23:40;;;;;;;9.20;6.70;;;11.40;99.90;;;;;;4904150;29;20041;-74
2023/05/01 06:26:25;;;;;;;9.85;7.15;;;11.50;99.90;;;;;;4893113;29;20036;-76
2023/05/01 06:28:50;;;;;;;9.13;6.47;;;11.50;99.90;;;;;;4895720;29;20251;-75
2023/05/01 06:31:16;;;;;;;10.85;6.68;;;11.70;99.90;;;;;;4874049;29;20025;-75
2023/05/01 06:33:48;;;;;;;9.07;6.88;;;11.80;99.90;;;;;;4873620;29;20075;-74
2023/05/01 06:36:40;;;;;;;9.40;7.20;;;11.80;99.90;;;;;;4894120;29;20352;-75
2023/05/01 06:39:05;;;;;;;8.25;6.30;;;12.00;99.90;;;;;;4878539;29;20037;-75
2023/05/01 06:41:33;;;;;;;8.68;6.30;;;12.10;99.90;;;;;;4874331;29;20258;-76
2023/05/01 06:43:58;;;;;;;8.48;6.70;;;12.20;99.90;;;;;;4890296;29;20118;-76
2023/05/01 06:46:27;;;;;;;12.00;6.82;;;12.40;99.90;;;;;;4890670;29;20037;-76
2023/05/01 06:48:53;;;;;;;10.50;6.97;;;12.40;99.90;;;;;;4890163;29;20104;-75
2023/05/01 06:51:19;;;;;;;10.05;7.32;;;12.40;99.90;;;;;;4873359;29;20302;-75
2023/05/01 06:53:44;;;;;;;10.95;6.85;;;12.30;99.90;;;;;;4890265;29;20076;-75
2023/05/01 06:56:10;;;;;;;9.75;7.32;;;12.30;99.90;;;;;;4881201;29;20080;-75
2023/05/01 06:58:36;;;;;;;10.15;7.18;;;12.30;99.90;;;;;;4890094;29;20047;-74
2023/05/01 07:01:02;;;;;;;9.10;6.40;;;12.30;99.90;;;;;;4889919;29;20218;-74
2023/05/01 07:03:28;;;;;;;7.90;6.22;;;12.40;99.90;;;;;;4892109;29;20057;-72
2023/05/01 07:05:54;;;;;;;9.15;6.63;;;12.50;99.90;;;;;;4898477;29;20215;-74
2023/05/01 07:08:27;;;;;;;8.60;6.45;;;12.60;99.90;;;;;;4889360;29;20037;-75
2023/05/01 07:10:52;;;;;;;8.40;6.80;;;12.70;99.90;;;;;;4893469;29;20040;-74
2023/05/01 07:13:18;;;;;;;10.45;6.47;;;12.80;99.90;;;;;;4905573;29;20039;-74
2023/05/01 07:15:44;;;;;;;8.48;6.70;;;13.00;99.90;;;;;;4899452;29;20215;-74
2023/05/01 07:18:11;;;;;;;8.38;6.25;;;13.10;99.90;;;;;;4889449;29;20325;-75
2023/05/01 07:20:36;;;;;;;9.75;6.47;;;13.20;99.90;;;;;;4889786;29;20037;-75
2023/05/01 07:23:03;;;;;;;8.32;6.18;;;13.20;99.90;;;;;;4889981;29;20073;-75
2023/05/01 07:25:29;;;;;;;7.47;5.85;;;13.30;99.90;;;;;;4889960;29;20096;-74
2023/05/01 07:27:55;;;;;;;7.20;5.55;;;13.40;99.90;;;;;;4898700;29;20040;-75
2023/05/01 07:30:21;;;;;;;8.55;5.80;;;13.40;99.90;;;;;;4908248;29;20088;-76
2023/05/01 07:32:47;;;;;;;6.75;5.32;;;13.50;99.90;;;;;;4908635;29;20036;-76
2023/05/01 07:35:12;;;;;;;8.65;6.07;;;13.50;99.90;;;;;;4908012;29;20108;-78
2023/05/01 07:37:38;;;;;;;8.77;5.93;;;13.60;99.90;;;;;;4891416;29;20043;-77
2023/05/01 07:40:15;;;;;;;7.57;5.47;;;13.60;99.90;;;;;;4908925;29;20043;-75
2023/05/01 07:42:41;;;;;;;9.20;6.10;;;13.70;99.90;;;;;;4908436;29;20084;-76
2023/05/01 07:45:07;;;;;;;9.63;6.05;;;13.80;99.90;;;;;;4888654;29;20251;-76
2023/05/01 07:47:33;;;;;;;7.20;5.53;;;13.80;99.90;;;;;;4889551;29;20215;-75
2023/05/01 07:49:59;;;;;;;8.10;5.60;;;14.00;99.90;;;;;;4896123;29;20033;-75
2023/05/01 07:52:25;;;;;;;7.57;5.63;;;14.10;99.90;;;;;;4889298;29;20345;-77
2023/05/01 07:54:51;;;;;;;7.00;5.80;;;14.20;99.90;;;;;;4896782;29;20016;-76
2023/05/01 07:57:17;;;;;;;7.47;5.63;;;14.20;99.90;;;;;;4887614;29;20033;-77
2023/05/01 07:59:43;;;;;;;7.30;5.10;;;14.30;99.90;;;;;;4889175;29;20044;-75
2023/05/01 08:02:09;;;;;;;8.15;5.50;;;14.50;99.90;;;;;;4888532;29;20040;-73
2023/05/01 08:04:34;;;;;;;6.85;5.63;;;14.40;99.90;;;;;;4891829;29;20064;-73
2023/05/01 08:07:00;;;;;;;6.78;4.88;;;14.40;99.90;;;;;;4893728;29;20037;-73
2023/05/01 08:09:26;;;;;;;11.75;5.40;;;14.50;99.90;;;;;;4910958;29;20080;-72
2023/05/01 08:11:51;;;;;;;8.05;5.63;;;14.40;99.90;;;;;;4905561;29;20377;-74
2023/05/01 08:14:18;;;;;;;7.50;5.50;;;14.50;99.90;;;;;;4906838;29;20064;-73
2023/05/01 08:16:44;;;;;;;7.65;5.38;;;14.60;99.90;;;;;;4907644;29;20259;-72
2023/05/01 08:19:09;;;;;;;6.75;5.30;;;14.60;99.90;;;;;;4900376;29;20041;-73
2023/05/01 08:21:36;;;;;;;7.20;5.20;;;14.70;99.90;;;;;;4889709;29;20049;-71
2023/05/01 08:24:02;;;;;;;7.80;6.00;;;14.90;99.90;;;;;;4891726;29;20043;-74
2023/05/01 08:26:28;;;;;;;7.25;5.47;;;15.00;99.90;;;;;;4905869;29;20028;-74
2023/05/01 08:28:54;;;;;;;8.00;5.20;;;15.00;99.90;;;;;;4889647;29;20064;-73
2023/05/01 08:31:20;;;;;;;6.47;5.30;;;15.30;99.90;;;;;;4888699;29;20033;-73
2023/05/01 08:33:46;;;;;;;8.25;5.22;;;15.60;99.80;;;;;;4888993;29;20048;-73
2023/05/01 08:36:11;;;;;;;6.75;5.15;;;15.60;98.80;;;;;;4888480;29;20168;-74
2023/05/01 08:38:37;;;;;;;6.65;5.28;;;16.00;98.60;;;;;;4888726;29;20036;-75
2023/05/01 08:41:03;;;;;;;7.07;4.88;;;16.30;98.20;;;;;;4890890;29;20036;-74
2023/05/01 08:43:32;;;;;;;8.07;5.32;;;16.50;97.60;;;;;;4898983;29;20080;-76
2023/05/01 08:46:07;;;;;;;10.13;4.85;;;16.60;97.20;;;;;;4888467;29;20303;-74
2023/05/01 08:48:35;;;;;;;8.10;5.57;;;16.60;96.90;;;;;;4888915;29;20363;-74
2023/05/01 08:51:03;;;;;;;6.60;5.13;;;16.40;97.10;;;;;;4888877;29;20100;-71
2023/05/01 08:53:32;;;;;;;6.93;5.25;;;16.40;97.00;;;;;;4888678;29;20037;-72
2023/05/01 08:55:59;;;;;;;8.20;5.10;;;16.70;97.10;;;;;;4898420;29;20032;-73
2023/05/01 08:58:26;;;;;;;7.32;4.70;;;16.90;96.50;;;;;;4890746;29;20033;-72
2023/05/01 09:00:55;;;;;;;6.40;5.00;;;17.20;96.20;;;;;;4888591;29;20088;-73
2023/05/01 09:03:21;;;;;;;7.15;5.05;;;17.00;95.50;;;;;;4888596;29;20354;-72
2023/05/01 09:05:47;;;;;;;6.35;4.35;;;17.10;95.90;;;;;;4902116;29;20037;-74
2023/05/01 09:08:13;;;;;;;7.22;5.10;;;17.30;95.20;;;;;;4906873;29;20044;-73
2023/05/01 09:10:44;;;;;;;7.45;5.18;;;17.50;95.20;;;;;;4907281;29;20040;-73
2023/05/01 09:13:11;;;;;;;7.63;5.07;;;17.80;95.00;;;;;;4892410;29;20089;-72
2023/05/01 09:15:37;;;;;;;6.28;4.93;;;18.00;94.10;;;;;;4897097;29;20083;-73
2023/05/01 09:18:03;;;;;;;6.18;4.45;;;18.10;94.10;;;;;;4905598;29;20032;-71
2023/05/01 09:20:30;;;;;;;7.28;4.97;;;18.30;94.20;;;;;;4888031;29;20321;-73
2023/05/01 09:22:56;;;;;;;6.13;4.63;;;18.50;93.30;;;;;;4890638;29;20343;-74
2023/05/01 09:25:22;;;;;;;6.97;4.82;;;18.70;93.20;;;;;;4891308;29;20021;-72
2023/05/01 09:27:48;;;;;;;7.88;5.13;;;18.80;92.30;;;;;;4892019;29;20032;-74
2023/05/01 09:30:37;;;;;;;6.88;5.00;;;18.70;92.40;;;;;;4891256;29;20037;-72
2023/05/01 09:33:13;;;;;;;7.30;4.50;;;18.90;92.50;;;;;;4884225;29;20073;-72
2023/05/01 09:35:53;;;;;;;6.55;5.18;;;19.10;91.80;;;;;;4891505;29;20056;-71
2023/05/01 09:38:21;;;;;;;6.95;5.13;;;19.10;91.50;;;;;;4891290;29;20235;-72
2023/05/01 09:40:47;;;;;;;6.00;4.47;;;19.10;91.40;;;;;;4891811;29;20103;-72
2023/05/01 09:43:12;;;;;;;5.63;4.55;;;19.20;91.00;;;;;;4891117;29;20114;-73
2023/05/01 09:45:41;;;;;;;7.80;4.90;;;19.30;91.30;;;;;;4891737;29;20072;-71
2023/05/01 09:48:12;;;;;;;6.97;5.05;;;19.50;91.10;;;;;;4891376;29;20036;-72
2023/05/01 09:50:41;;;;;;;6.18;4.78;;;19.60;90.80;;;;;;4900712;29;20036;-72
2023/05/01 09:53:07;;;;;;;7.10;4.57;;;19.70;90.90;;;;;;4910389;29;20096;-73
2023/05/01 09:55:33;;;;;;;7.25;5.43;;;19.80;90.40;;;;;;4910338;29;20032;-71
2023/05/01 09:57:59;;;;;;;9.07;4.65;;;19.90;90.30;;;;;;4906739;29;20045;-71
2023/05/01 10:00:25;;;;;;;7.70;5.20;;;20.00;90.20;;;;;;4905010;29;20063;-72
2023/05/01 10:02:51;;;;;;;6.55;4.88;;;19.90;90.00;;;;;;4909335;29;20331;-71
2023/05/01 10:05:18;;;;;;;7.35;5.50;;;20.10;90.10;;;;;;4880697;29;20044;-71
2023/05/01 10:07:58;;;;;;;6.57;4.60;;;20.20;89.40;;;;;;4890931;29;20056;-71
2023/05/01 10:10:24;;;;;;;8.52;5.13;;;20.30;88.90;;;;;;4900238;29;20251;-71
2023/05/01 10:12:50;;;;;;;5.32;4.50;;;20.00;89.00;;;;;;4890966;29;20039;-71
2023/05/01 10:15:17;;;;;;;6.32;4.55;;;19.80;89.50;;;;;;4894168;29;20028;-72
2023/05/01 10:17:43;;;;;;;6.13;5.22;;;19.70;89.40;;;;;;4901275;29;20040;-72
2023/05/01 10:20:11;;;;;;;8.60;5.47;;;19.60;87.80;;;;;;4909137;29;20104;-77
2023/05/01 10:22:40;;;;;;;8.25;5.65;;;19.40;88.60;;;;;;4909473;29;20033;-72
2023/05/01 10:25:11;;;;;;;6.63;5.10;;;19.30;90.10;;;;;;4909744;29;20210;-73
2023/05/01 10:27:38;;;;;;;9.50;5.25;;;19.30;89.30;;;;;;4909756;29;20040;-72
2023/05/01 10:30:05;;;;;;;7.65;5.22;;;19.40;89.50;;;;;;4909292;29;20342;-71
2023/05/01 10:32:31;;;;;;;5.90;4.80;;;19.60;89.40;;;;;;4908873;29;20191;-70
2023/05/01 10:35:03;;;;;;;7.38;5.28;;;19.90;87.50;;;;;;4909349;29;20037;-73
2023/05/01 10:37:43;;;;;;;6.00;5.03;;;19.80;87.00;;;;;;4908596;29;20234;-72
2023/05/01 10:40:44;;;;;;;6.18;4.93;;;19.90;87.00;;;;;;4909484;29;20053;-72
2023/05/01 10:43:29;;;;;;;6.20;4.72;;;20.30;86.40;;;;;;4908887;29;20036;-74
2023/05/01 10:46:17;;;;;;;7.55;4.55;;;20.40;84.80;;;;;;4909523;29;20088;-73
2023/05/01 10:48:46;;;;;;;;;;;20.70;84.30;;;;;;4909918;29;20044;-72
2023/05/01 10:51:20;;;;;;;9.25;5.13;;;20.90;84.00;;;;;;4908801;29;20272;-73
2023/05/01 10:53:47;;;;;;;6.53;5.13;;;20.90;84.30;;;;;;4908841;29;20326;-74
2023/05/01 10:56:32;;;;;;;6.38;4.40;;;20.90;82.60;;;;;;4894370;29;20037;-72
2023/05/01 10:59:03;;;;;;;5.72;4.65;;;20.80;82.90;;;;;;4890020;29;20057;-72
2023/05/01 11:01:30;;;;;;;6.70;4.50;;;20.90;82.00;;;;;;4889358;29;20103;-72
2023/05/01 11:04:03;;;;;;;8.07;5.28;;;20.80;81.50;;;;;;4894247;29;20040;-72
2023/05/01 11:06:29;;;;;;;6.00;4.70;;;20.90;81.70;;;;;;4905776;29;20073;-73
2023/05/01 11:08:56;;;;;;;7.05;5.03;;;20.90;83.00;;;;;;4901346;29;20028;-72
2023/05/01 11:11:21;;;;;;;5.78;4.22;;;20.60;82.70;;;;;;4899851;29;20040;-70
2023/05/01 11:14:10;;;;;;;7.13;4.72;;;20.70;83.90;;;;;;4885222;29;20287;-72
2023/05/01 11:16:39;;;;;;;7.40;4.88;;;20.90;82.80;;;;;;4894745;29;20049;-73
2023/05/01 11:19:10;;;;;;;7.88;5.10;;;20.70;83.30;;;;;;4892712;29;20053;-71
2023/05/01 11:21:39;;;;;;;7.60;5.00;;;20.60;83.20;;;;;;4895900;29;20051;-71
2023/05/01 11:24:08;;;;;;;5.82;4.88;;;20.50;83.50;;;;;;4892740;29;20041;-71
2023/05/01 11:26:39;;;;;;;6.85;5.13;;;20.50;84.20;;;;;;4872988;29;20200;-72
2023/05/01 11:29:05;;;;;;;6.50;4.70;;;20.30;83.80;;;;;;4889780;29;20070;-73
2023/05/01 11:31:31;;;;;;;8.75;4.63;;;20.30;84.20;;;;;;4889353;29;20017;-72
2023/05/01 11:33:59;;;;;;;6.03;4.63;;;20.40;83.10;;;;;;4889593;29;20052;-72
2023/05/01 11:36:26;;;;;;;7.07;4.40;;;20.40;83.50;;;;;;4889262;29;20063;-72
2023/05/01 11:38:57;;;;;;;7.13;4.40;;;20.40;83.70;;;;;;4864604;29;20051;-72
2023/05/01 11:41:27;;;;;;;6.07;4.47;;;20.50;82.90;;;;;;4888893;29;20032;-71
2023/05/01 11:43:57;;;;;;;7.38;4.60;;;20.70;82.90;;;;;;4889195;29;20264;-70
2023/05/01 11:46:28;;;;;;;5.72;4.47;;;20.70;81.90;;;;;;4888590;29;20045;-71
2023/05/01 11:48:55;;;;;;;6.30;4.88;;;20.70;82.00;;;;;;4890582;29;20033;-70
2023/05/01 11:51:25;;;;;;;7.30;4.35;;;20.70;82.00;;;;;;4907935;29;20048;-71
2023/05/01 11:54:12;;;;;;;5.90;4.07;;;20.70;81.10;;;;;;4878416;29;20057;-71
2023/05/01 11:56:39;;;;;;;7.07;4.45;;;20.60;81.70;;;;;;4897571;29;20041;-71
2023/05/01 11:59:17;;;;;;;6.97;4.80;;;20.50;83.10;;;;;;4904786;29;20041;-73
2023/05/01 12:01:45;;;;;;;8.93;4.68;;;20.60;83.40;;;;;;4888882;29;20056;-72
2023/05/01 12:04:12;;;;;;;6.07;4.30;;;20.60;83.60;;;;;;4896434;29;20047;-72
2023/05/01 12:06:45;;;;;;;6.13;4.88;;;20.70;82.70;;;;;;4896802;29;20039;-72
2023/05/01 12:09:21;;;;;;;5.90;4.40;;;20.70;81.00;;;;;;4888831;29;20045;-72
2023/05/01 12:11:49;;;;;;;5.30;4.22;;;20.80;82.00;;;;;;4888812;29;20029;-71
2023/05/01 12:14:20;;;;;;;6.20;4.78;;;21.00;81.20;;;;;;4889155;29;20041;-72
2023/05/01 12:16:47;;;;;;;7.50;4.50;;;21.20;81.20;;;;;;4896779;29;20099;-72
2023/05/01 12:19:14;;;;;;;5.85;4.40;;;21.30;81.40;;;;;;4890767;29;20307;-72
2023/05/01 12:21:43;;;;;;;5.70;4.22;;;21.50;79.90;;;;;;4888301;29;20040;-72
2023/05/01 12:24:10;;;;;;;6.22;4.93;;;21.70;80.50;;;;;;4888998;29;20035;-71
2023/05/01 12:26:36;;;;;;;6.43;4.43;;;21.70;80.10;;;;;;4888742;29;20240;-70
2023/05/01 12:29:07;;;;;;;6.65;4.50;;;21.50;80.70;;;;;;4888636;29;20028;-69
2023/05/01 12:31:33;;;;;;;5.47;4.50;;;21.70;80.60;;;;;;4888809;29;20045;-70
2023/05/01 12:34:01;;;;;;;6.18;4.53;;;21.70;79.60;;;;;;4888965;29;20040;-71
2023/05/01 12:36:30;;;;;;;5.25;4.40;;;21.70;80.10;;;;;;4888653;29;20088;-70
2023/05/01 12:39:07;;;;;;;5.78;4.40;;;21.70;79.00;;;;;;4888554;29;20138;-69
2023/05/01 12:41:41;;;;;;;5.97;4.85;;;21.80;79.80;;;;;;4888746;29;20033;-71
2023/05/01 12:44:26;;;;;;;6.95;4.80;;;21.90;79.50;;;;;;4888842;29;20037;-71
2023/05/01 12:46:54;;;;;;;5.60;4.00;;;21.80;79.40;;;;;;4889026;29;20025;-69
2023/05/01 12:49:20;;;;;;;8.00;4.20;;;21.90;80.30;;;;;;4888414;29;20070;-70
2023/05/01 12:51:51;;;;;;;5.85;4.60;;;22.20;78.20;;;;;;4888902;29;20100;-71
2023/05/01 12:54:25;;;;;;;6.13;4.53;;;22.20;78.10;;;;;;4888714;29;20024;-71
2023/05/01 12:56:54;;;;;;;6.95;4.20;;;22.10;78.00;;;;;;4890759;29;20044;-69
2023/05/01 12:59:26;;;;;;;7.82;4.80;;;22.10;77.80;;;;;;4891833;29;20088;-71
2023/05/01 13:01:59;;;;;;;5.53;4.47;;;22.20;77.30;;;;;;4888919;29;20057;-72
2023/05/01 13:04:28;;;;;;;5.93;4.25;;;22.50;77.00;;;;;;4894897;29;20104;-71
2023/05/01 13:06:57;;;;;;;6.13;4.18;;;22.60;77.40;;;;;;4892436;29;20036;-72
2023/05/01 13:09:29;;;;;;;7.28;5.10;;;22.60;77.30;;;;;;4893806;29;20033;-75
2023/05/01 13:12:09;;;;;;;5.68;4.55;;;22.00;77.20;;;;;;4882743;29;20036;-73
2023/05/01 13:14:37;;;;;;;8.13;4.75;;;21.80;78.60;;;;;;4875185;29;20315;-71
2023/05/01 13:17:11;;;;;;;5.90;4.53;;;21.50;79.40;;;;;;4908827;29;20104;-72
2023/05/01 13:19:37;;;;;;;6.32;5.13;;;21.00;79.50;;;;;;4893884;29;20072;-79
2023/05/01 13:22:04;;;;;;;6.40;4.55;;;20.50;80.70;;;;;;4892251;29;20100;-71
2023/05/01 13:24:41;;;;;;;6.50;5.03;;;20.10;82.10;;;;;;4891732;29;20037;-71
2023/05/01 13:27:08;;;;;;;7.75;5.70;;;19.80;83.40;;;;;;4875083;29;20037;-73
2023/05/01 13:29:34;;;;;;;8.52;6.10;;;19.40;84.40;;;;;;4891475;29;20227;-72
2023/05/01 13:32:02;;;;;;;9.55;5.47;;;19.10;85.70;;;;;;4891755;29;20040;-71
2023/05/01 13:34:32;;;;;;;7.72;5.40;;;18.90;87.60;;;;;;4891263;29;20037;-72
2023/05/01 13:36:59;;;;;;;9.05;5.07;;;18.80;87.20;;;;;;4891896;29;20048;-72
2023/05/01 13:39:25;;;;;;;7.13;5.22;;;18.70;87.70;;;;;;4891246;29;20052;-72
2023/05/01 13:41:52;;;;;;;6.38;5.10;;;18.60;87.80;;;;;;4891788;29;20211;-72
2023/05/01 13:44:19;;;;;;;7.38;5.45;;;18.40;88.60;;;;;;4891329;29;20028;-72
2023/05/01 13:46:45;;;;;;;7.60;5.63;;;18.20;89.40;;;;;;4890861;29;20044;-71
2023/05/01 13:49:13;;;;;;;7.80;5.78;;;18.20;89.40;;;;;;4891713;29;20108;-72
2023/05/01 13:51:41;;;;;;;6.47;5.20;;;18.20;90.00;;;;;;4891288;29;20053;-72
2023/05/01 13:54:08;;;;;;;6.28;4.93;;;18.20;90.30;;;;;;4891547;29;20017;-71
2023/05/01 13:56:36;;;;;;;6.85;4.75;;;18.30;90.60;;;;;;4891002;29;20036;-73
2023/05/01 13:59:03;;;;;;;7.03;5.10;;;18.30;89.50;;;;;;4874943;29;20049;-71
2023/05/01 14:01:28;;;;;;;7.82;4.50;;;18.40;89.30;;;;;;4890496;29;20033;-71
2023/05/01 14:03:59;;;;;;;8.05;5.28;;;18.50;90.30;;;;;;4896065;29;20029;-71
2023/05/01 14:06:25;;;;;;;8.57;5.15;;;18.50;89.00;;;;;;4917053;29;20041;-71
2023/05/01 14:08:53;;;;;;;5.82;4.70;;;18.50;89.90;;;;;;4895960;29;20033;-71
2023/05/01 14:11:18;;;;;;;6.80;5.22;;;18.50;90.10;;;;;;4902973;29;20073;-71
2023/05/01 14:13:46;;;;;;;5.38;4.53;;;18.30;90.10;;;;;;4892253;29;20315;-71
2023/05/01 14:16:32;;;;;;;6.47;4.75;;;18.30;90.30;;;;;;4891156;29;20052;-72
2023/05/01 14:18:57;;;;;;;5.10;4.07;;;18.20;90.70;;;;;;4890891;29;20104;-70
2023/05/01 14:21:28;;;;;;;5.15;3.90;;;18.50;90.60;;;;;;4890635;29;20033;-72
2023/05/01 14:23:55;;;;;;;5.93;3.83;;;18.90;90.00;;;;;;4891288;29;20048;-70
2023/05/01 14:26:24;;;;;;;5.10;3.88;;;19.40;88.70;;;;;;4891086;29;20067;-72
2023/05/01 14:28:50;;;;;;;4.75;4.07;;;19.90;86.60;;;;;;4892849;29;20041;-71
2023/05/01 14:31:27;;;;;;;4.25;3.55;;;20.60;84.70;;;;;;4909651;29;20048;-71
2023/05/01 14:34:02;;;;;;;6.47;4.20;;;21.00;83.90;;;;;;4894120;29;20081;-71
2023/05/01 14:36:32;;;;;;;6.75;4.72;;;21.20;83.60;;;;;;4890320;29;20052;-71
2023/05/01 14:39:02;;;;;;;6.85;4.72;;;21.30;82.80;;;;;;4890610;29;20049;-71
2023/05/01 14:41:28;;;;;;;5.75;4.25;;;21.90;81.60;;;;;;4890313;29;20175;-71
2023/05/01 14:43:54;;;;;;;5.47;4.10;;;22.70;80.10;;;;;;4890511;29;20021;-71
2023/05/01 14:46:28;;;;;;;6.28;3.90;;;24.60;75.70;;;;;;4890528;29;20310;-71
2023/05/01 14:48:54;;;;;;;4.80;3.08;;;27.30;70.40;;;;;;4890629;29;20045;-71
2023/05/01 14:51:20;;;;;;;5.15;3.13;;;28.50;66.90;;;;;;4890816;29;20024;-70
2023/05/01 14:53:45;;;;;;;4.63;3.45;;;27.60;67.30;;;;;;4889727;29;20239;-70
2023/05/01 14:56:12;;;;;;;6.78;3.80;;;26.50;67.50;;;;;;4890219;29;20036;-71
2023/05/01 14:58:40;;;;;;;5.22;3.20;;;24.90;69.80;;;;;;4889678;29;20033;-70
2023/05/01 15:01:06;;;;;;;5.38;3.85;;;24.10;73.30;;;;;;4890185;29;20069;-71
2023/05/01 15:03:39;;;;;;;5.88;4.38;;;23.30;73.90;;;;;;4892310;29;20116;-71
2023/05/01 15:06:05;;;;;;;4.25;3.63;;;22.20;77.90;;;;;;4890478;29;20041;-70
2023/05/01 15:08:32;;;;;;;6.03;4.40;;;21.30;80.90;;;;;;4889421;29;20033;-71
2023/05/01 15:10:58;;;;;;;6.45;4.07;;;20.70;83.30;;;;;;4899775;29;20025;-71
2023/05/01 15:13:24;;;;;;;7.53;4.70;;;20.40;83.60;;;;;;4890032;29;20037;-71
2023/05/01 15:15:50;;;;;;;5.97;4.28;;;20.00;84.50;;;;;;4889287;29;20099;-71
2023/05/01 15:18:16;;;;;;;7.18;4.85;;;19.60;85.50;;;;;;4890059;29;20097;-71
2023/05/01 15:20:42;;;;;;;7.70;5.20;;;19.20;86.50;;;;;;4888706;29;20303;-70
2023/05/01 15:23:09;;;;;;;8.02;5.82;;;18.90;90.30;;;;;;4890021;29;20021;-71
2023/05/01 15:25:43;;;;;;;7.28;5.85;;;18.60;90.40;;;;;;4889501;29;20040;-71
2023/05/01 15:28:09;;;;;;;7.97;5.93;;;18.40;91.60;;;;;;4889878;29;20172;-71
2023/05/01 15:30:45;;;;;;;7.32;5.72;;;18.40;93.70;;;;;;4889040;29;20039;-71
2023/05/01 15:33:12;;;;;;;7.55;6.07;;;18.20;94.40;;;;;;4889428;29;20347;-70
2023/05/01 15:35:37;;;;;;;9.25;6.60;;;18.10;94.80;;;;;;4889430;29;20233;-71
2023/05/01 15:38:03;;;;;;;8.68;6.75;;;17.90;95.30;;;;;;4889290;29;20041;-71
2023/05/01 15:40:29;;;;;;;9.30;7.30;;;17.80;97.10;;;;;;4888727;29;20041;-73
2023/05/01 15:42:55;;;;;;;8.40;7.10;;;17.60;98.00;;;;;;4872865;29;20315;-71
2023/05/01 15:45:20;;;;;;;9.07;7.05;;;17.40;99.20;;;;;;4889748;29;20036;-72
2023/05/01 15:47:46;;;;;;;8.88;6.88;;;17.20;99.90;;;;;;4888897;29;20077;-75
2023/05/01 15:50:12;;;;;;;9.38;6.47;;;16.90;99.90;;;;;;4889517;29;20044;-70
2023/05/01 15:52:38;;;;;;;8.13;6.07;;;16.70;99.90;;;;;;4888950;29;20037;-71
2023/05/01 15:55:04;;;;;;;6.75;5.40;;;16.60;99.90;;;;;;4889257;29;20051;-70
2023/05/01 15:57:31;;;;;;;7.70;6.22;;;16.80;99.90;;;;;;4888598;29;20185;-71
2023/05/01 15:59:57;;;;;;;6.82;5.78;;;17.30;99.90;;;;;;4888734;29;20045;-73
2023/05/01 16:02:25;;;;;;;9.35;6.05;;;17.30;99.90;;;;;;4897906;29;20068;-71
2023/05/01 16:04:52;;;;;;;7.45;5.25;;;17.10;99.90;;;;;;4891744;29;20041;-72
2023/05/01 16:07:20;;;;;;;8.45;5.57;;;17.20;99.90;;;;;;4888710;29;20221;-73
2023/05/01 16:09:46;;;;;;;7.33;5.67;;;17.20;99.50;;;;;;4894024;29;20072;-71
2023/05/01 16:12:12;;;;;;;8.13;5.95;;;17.30;99.90;;;;;;4893084;29;20333;-73
2023/05/01 16:14:40;;;;;;;10.30;5.43;;;17.40;99.20;;;;;;4888545;29;20064;-72
2023/05/01 16:17:06;;;;;;;7.07;5.85;;;17.60;99.10;;;;;;4889305;29;20025;-73
2023/05/01 16:19:31;;;;;;;6.85;5.10;;;17.50;98.20;;;;;;4888447;29;20161;-71
2023/05/01 16:21:58;;;;;;;7.10;5.07;;;17.60;98.20;;;;;;4888945;29;20041;-71
2023/05/01 16:24:23;;;;;;;7.10;5.13;;;17.40;99.10;;;;;;4888896;29;20041;-74
2023/05/01 16:26:49;;;;;;;7.10;5.50;;;17.20;98.30;;;;;;4888645;29;20048;-74
2023/05/01 16:29:15;;;;;;;7.95;5.82;;;16.80;99.60;;;;;;4888738;29;20238;-73
2023/05/01 16:31:46;;;;;;;7.38;5.35;;;16.60;99.90;;;;;;4888428;29;20041;-73
2023/05/01 16:34:19;;;;;;;7.15;5.15;;;16.50;99.90;;;;;;4891624;29;20109;-74
2023/05/01 16:36:45;;;;;;;6.30;5.25;;;16.30;99.90;;;;;;4895933;29;20081;-72
2023/05/01 16:39:17;;;;;;;8.25;5.00;;;16.00;99.90;;;;;;4903270;29;20033;-73
2023/05/01 16:41:45;;;;;;;6.13;5.20;;;15.80;99.90;;;;;;4905477;29;20028;-72
2023/05/01 16:44:12;;;;;;;7.30;5.20;;;15.60;99.90;;;;;;4908877;29;20058;-72
2023/05/01 16:46:41;;;;;;;6.93;5.32;;;15.50;99.90;;;;;;4892460;29;20105;-73
2023/05/01 16:49:12;;;;;;;7.50;5.05;;;15.40;99.90;;;;;;4888895;29;20025;-73
2023/05/01 16:51:41;;;;;;;7.57;5.60;;;15.30;99.90;;;;;;4900045;29;20327;-74
2023/05/01 16:54:06;;;;;;;9.10;5.57;;;15.20;99.90;;;;;;4892400;29;20104;-75
2023/05/01 16:56:32;;;;;;;6.07;4.25;;;15.10;99.90;;;;;;4907447;29;20215;-72
2023/05/01 16:59:01;;;;;;;5.43;3.55;;;15.00;99.90;;;;;;4907306;29;20322;-73
2023/05/01 17:01:27;;;;;;;5.35;3.20;;;14.80;99.90;;;;;;4888915;29;20036;-75
2023/05/01 17:03:52;;;;;;;3.65;2.55;;;14.90;99.90;;;;;;4876620;29;20352;-74
2023/05/01 17:06:18;;;;;;;4.40;2.70;;;15.00;99.90;;;;;;4890184;29;20091;-73
2023/05/01 17:08:44;;;;;;;5.30;2.90;;;15.10;99.90;;;;;;4888229;29;20040;-73
2023/05/01 17:11:10;;;;;;;4.10;2.70;;;15.10;99.90;;;;;;4891999;29;20263;-74
2023/05/01 17:13:36;;;;;;;5.28;2.50;;;15.10;99.90;;;;;;4897960;29;20033;-74
2023/05/01 17:16:02;;;;;;;4.65;2.63;;;15.00;99.90;;;;;;4895322;29;20043;-76
2023/05/01 17:18:27;;;;;;;5.40;3.13;;;15.00;99.90;;;;;;4888649;29;20044;-73
2023/05/01 17:20:53;;;;;;;4.13;2.90;;;14.80;99.90;;;;;;4899862;29;20381;-72
2023/05/01 17:23:20;;;;;;;4.78;3.22;;;14.60;99.90;;;;;;4904136;29;20040;-73
2023/05/01 17:25:46;;;;;;;5.15;3.28;;;14.60;99.90;;;;;;4906463;29;20052;-73
2023/05/01 17:28:11;;;;;;;4.18;2.95;;;14.50;99.90;;;;;;4892835;29;20028;-73
2023/05/01 17:30:37;;;;;;;5.13;2.97;;;14.40;99.90;;;;;;4895427;29;20350;-73
2023/05/01 17:33:03;;;;;;;4.28;2.78;;;14.40;99.90;;;;;;4887861;29;20029;-74
2023/05/01 17:35:28;;;;;;;4.00;2.33;;;14.40;99.90;;;;;;4888263;29;20093;-73
2023/05/01 17:37:54;;;;;;;5.43;2.85;;;14.30;99.90;;;;;;4897626;29;20277;-71
2023/05/01 17:40:20;;;;;;;6.43;3.00;;;14.50;99.90;;;;;;4888215;29;20037;-73
2023/05/01 17:42:46;;;;;;;3.72;2.88;;;14.50;99.90;;;;;;4871428;29;20032;-73
2023/05/01 17:45:12;;;;;;;4.82;3.42;;;14.60;99.90;;;;;;4891814;29;20021;-72
2023/05/01 17:47:40;;;;;;;4.80;3.45;;;14.50;99.90;;;;;;4891106;29;20029;-72
2023/05/01 17:50:12;;;;;;;5.88;3.30;;;14.50;99.90;;;;;;4891785;29;20129;-73